createdAt,value
2018-05-10T00:02:09.053Z,100.00
2018-05-10T00:04:38.775Z,100.00
2018-05-10T00:07:09.818Z,100.00
2018-05-10T00:09:39.614Z,100.00
2018-05-10T00:12:10.081Z,100.00
2018-05-10T00:14:40.484Z,100.00
2018-05-10T00:17:10.260Z,100.00
2018-05-10T00:19:40.808Z,100.00
2018-05-10T00:22:10.798Z,100.00
2018-05-10T00:24:40.309Z,100.00
2018-05-10T00:27:10.985Z,100.00
2018-05-10T00:29:41.213Z,100.00
2018-05-10T00:32:10.803Z,100.00
2018-05-10T00:34:40.299Z,100.00
2018-05-10T00:37:09.921Z,100.00
2018-05-10T00:39:39.775Z,100.00
2018-05-10T00:42:09.310Z,100.00
2018-05-10T00:44:38.921Z,100.00
2018-05-10T00:47:09.369Z,100.00
2018-05-10T00:49:39.096Z,100.00
2018-05-10T00:52:08.658Z,100.00
2018-05-10T00:54:57.974Z,100.00
2018-05-10T00:57:28.581Z,100.00
2018-05-10T00:59:59.647Z,100.00
2018-05-10T01:02:30.860Z,100.00
2018-05-10T01:05:00.682Z,100.00
2018-05-10T01:07:31.004Z,100.00
2018-05-10T01:10:01.260Z,100.00
2018-05-10T01:12:30.880Z,100.00
2018-05-10T01:15:02.007Z,100.00
2018-05-10T01:17:35.643Z,100.00
2018-05-10T01:20:06.602Z,100.00
2018-05-10T01:22:41.263Z,100.00
2018-05-10T01:25:13.217Z,100.00
2018-05-10T01:27:42.772Z,100.00
2018-05-10T01:30:15.945Z,100.00
2018-05-10T01:32:46.249Z,100.00
2018-05-10T01:35:33.738Z,100.00
2018-05-10T01:38:03.264Z,100.00
2018-05-10T01:40:33.215Z,100.00
2018-05-10T01:43:02.983Z,100.00
2018-05-10T01:45:33.000Z,100.00
2018-05-10T01:48:02.647Z,100.00
2018-05-10T01:50:32.277Z,100.00
2018-05-10T01:53:01.783Z,100.00
2018-05-10T01:55:31.877Z,100.00
2018-05-10T01:58:01.386Z,100.00
2018-05-10T02:00:31.053Z,100.00
2018-05-10T02:03:00.612Z,100.00
2018-05-10T02:05:30.198Z,100.00
2018-05-10T02:08:00.137Z,100.00
2018-05-10T02:10:30.359Z,100.00
2018-05-10T02:12:59.921Z,100.00
2018-05-10T02:15:29.647Z,100.00
2018-05-10T02:17:59.269Z,100.00
2018-05-10T02:20:28.781Z,100.00
2018-05-10T02:22:58.345Z,100.00
2018-05-10T02:25:36.182Z,100.00
2018-05-10T02:28:07.664Z,100.00
2018-05-10T02:30:37.448Z,100.00
2018-05-10T02:33:07.003Z,100.00
2018-05-10T02:35:37.749Z,100.00
2018-05-10T02:38:07.545Z,100.00
2018-05-10T02:40:37.851Z,100.00
2018-05-10T02:43:08.379Z,100.00
2018-05-10T02:45:37.922Z,100.00
2018-05-10T02:48:08.413Z,100.00
2018-05-10T02:50:38.022Z,100.00
2018-05-10T02:53:07.640Z,100.00
2018-05-10T02:55:37.434Z,100.00
2018-05-10T02:58:07.250Z,100.00
2018-05-10T03:00:36.808Z,100.00
2018-05-10T03:03:06.548Z,100.00
2018-05-10T03:05:36.174Z,100.00
2018-05-10T03:08:06.962Z,100.00
2018-05-10T03:10:36.656Z,100.00
2018-05-10T03:13:06.940Z,100.00
2018-05-10T03:15:37.481Z,100.00
2018-05-10T03:18:07.102Z,100.00
2018-05-10T03:20:36.713Z,100.00
2018-05-10T03:23:06.474Z,100.00
2018-05-10T03:25:36.322Z,100.00
2018-05-10T03:28:07.654Z,100.00
2018-05-10T03:30:37.484Z,100.00
2018-05-10T03:33:07.026Z,100.00
2018-05-10T03:35:36.603Z,100.00
2018-05-10T03:38:06.409Z,100.00
2018-05-10T03:40:37.073Z,100.00
2018-05-10T03:43:06.639Z,100.00
2018-05-10T03:45:36.395Z,100.00
2018-05-10T03:48:07.881Z,100.00
2018-05-10T03:50:37.475Z,100.00
2018-05-10T03:53:07.334Z,100.00
2018-05-10T03:55:37.356Z,100.00
2018-05-10T03:58:07.867Z,100.00
2018-05-10T04:00:37.552Z,100.00
2018-05-10T04:16:56.037Z,100.00
2018-05-10T04:19:25.738Z,100.00
2018-05-10T04:21:56.842Z,100.00
2018-05-10T04:24:27.092Z,100.00
2018-05-10T04:26:56.717Z,100.00
2018-05-10T04:29:27.589Z,100.00
2018-05-10T04:34:49.713Z,100.00
2018-05-10T04:37:32.192Z,100.00
2018-05-10T04:40:01.888Z,100.00
2018-05-10T04:42:32.880Z,100.00
2018-05-10T04:45:03.215Z,100.00
2018-05-10T04:47:33.839Z,100.00
2018-05-10T04:50:03.649Z,100.00
2018-05-10T04:52:43.412Z,100.00
2018-05-10T04:55:15.836Z,100.00
2018-05-10T04:57:45.342Z,100.00
2018-05-10T05:00:14.972Z,100.00
2018-05-10T05:02:46.582Z,100.00
2018-05-10T05:05:16.836Z,100.00
2018-05-10T05:07:50.176Z,100.00
2018-05-10T05:10:19.968Z,100.00
2018-05-10T05:13:04.747Z,100.00
2018-05-10T05:15:34.897Z,100.00
2018-05-10T05:18:06.298Z,100.00
2018-05-10T05:20:37.672Z,100.00
2018-05-10T05:23:07.987Z,100.00
2018-05-10T05:25:38.605Z,100.00
2018-05-10T05:28:08.220Z,100.00
2018-05-10T05:30:37.976Z,100.00
2018-05-10T05:33:08.419Z,100.00
2018-05-10T05:35:38.313Z,100.00
2018-05-10T05:38:10.276Z,100.00
2018-05-10T05:40:40.965Z,100.00
2018-05-10T05:43:12.689Z,100.00
2018-05-10T05:45:42.684Z,100.00
2018-05-10T05:48:13.295Z,100.00
2018-05-10T05:50:43.705Z,100.00
2018-05-10T05:53:13.632Z,100.00
2018-05-10T05:55:48.157Z,100.00
2018-05-10T05:58:18.570Z,100.00
2018-05-10T06:03:23.411Z,100.00
2018-05-10T06:05:54.872Z,100.00
2018-05-10T06:08:27.469Z,100.00
2018-05-10T06:11:00.529Z,100.00
2018-05-10T06:13:33.762Z,100.00
2018-05-10T06:16:05.444Z,100.00
2018-05-10T06:18:41.727Z,100.00
2018-05-10T06:21:12.182Z,100.00
2018-05-10T06:23:48.347Z,100.00
2018-05-10T06:29:30.370Z,100.00
2018-05-10T06:32:03.570Z,99.66
2018-05-10T06:37:17.212Z,98.12
2018-05-10T06:39:46.771Z,97.53
2018-05-10T06:42:16.494Z,97.17
2018-05-10T06:44:46.082Z,96.78
2018-05-10T06:47:15.627Z,94.22
2018-05-10T06:49:45.238Z,95.04
2018-05-10T06:52:16.649Z,94.43
2018-05-10T06:54:46.465Z,93.79
2018-05-10T06:57:17.034Z,92.88
2018-05-10T06:59:46.770Z,92.83
2018-05-10T07:02:19.986Z,93.06
2018-05-10T07:04:51.397Z,93.42
2018-05-10T07:07:21.903Z,93.77
2018-05-10T07:09:51.903Z,93.13
2018-05-10T07:12:21.485Z,93.11
2018-05-10T07:14:51.979Z,92.07
2018-05-10T07:17:21.692Z,91.10
2018-05-10T07:19:52.744Z,90.71
2018-05-10T07:22:22.576Z,91.00
2018-05-10T07:24:53.919Z,89.74
2018-05-10T07:27:23.817Z,91.67
2018-05-10T07:29:53.459Z,89.26
2018-05-10T07:32:24.684Z,88.42
2018-05-10T07:34:54.275Z,88.09
2018-05-10T07:37:24.011Z,88.57
2018-05-10T07:39:53.792Z,88.63
2018-05-10T07:42:23.581Z,89.61
2018-05-10T07:44:53.467Z,89.17
2018-05-10T07:47:23.269Z,86.68
2018-05-10T07:49:52.896Z,84.09
2018-05-10T07:52:22.566Z,84.46
2018-05-10T07:54:52.686Z,84.31
2018-05-10T07:57:23.483Z,83.77
2018-05-10T07:59:53.124Z,83.00
2018-05-10T08:02:23.437Z,82.29
2018-05-10T08:04:54.536Z,83.46
2018-05-10T08:07:24.842Z,83.33
2018-05-10T08:09:56.972Z,83.94
2018-05-10T08:12:27.208Z,84.67
2018-05-10T08:14:56.789Z,82.54
2018-05-10T08:17:27.052Z,80.36
2018-05-10T08:19:58.854Z,76.95
2018-05-10T08:22:28.361Z,69.50
2018-05-10T08:24:57.794Z,61.82
2018-05-10T08:27:40.766Z,56.37
2018-05-10T08:30:12.898Z,55.66
2018-05-10T08:32:42.708Z,56.32
2018-05-10T08:35:13.836Z,53.42
2018-05-10T08:37:43.397Z,54.34
2018-05-10T08:40:12.963Z,55.83
2018-05-10T08:42:42.468Z,54.57
2018-05-10T08:45:12.172Z,52.00
2018-05-10T08:47:41.874Z,52.58
2018-05-10T08:50:11.620Z,50.04
2018-05-10T08:52:41.218Z,50.47
2018-05-10T08:55:11.031Z,50.27
2018-05-10T08:57:40.581Z,50.44
2018-05-10T09:00:10.348Z,49.23
2018-05-10T09:02:40.066Z,46.79
2018-05-10T09:05:09.530Z,47.55
2018-05-10T09:07:39.821Z,46.77
2018-05-10T09:10:10.135Z,44.85
2018-05-10T09:12:41.142Z,44.59
2018-05-10T09:15:11.065Z,43.68
2018-05-10T09:17:40.873Z,42.46
2018-05-10T09:20:10.699Z,44.11
2018-05-10T09:22:40.237Z,44.12
2018-05-10T09:25:09.909Z,44.94
2018-05-10T09:27:40.414Z,43.25
2018-05-10T09:30:10.893Z,48.05
2018-05-10T09:32:41.722Z,44.81
2018-05-10T09:35:11.357Z,45.98
2018-05-10T09:37:40.860Z,46.53
2018-05-10T09:40:10.390Z,45.51
2018-05-10T09:42:40.154Z,49.14
2018-05-10T09:45:09.973Z,47.75
2018-05-10T09:47:40.552Z,43.44
2018-05-10T09:50:11.000Z,41.35
2018-05-10T09:52:43.100Z,41.65
2018-05-10T09:55:17.565Z,40.06
2018-05-10T09:57:49.142Z,38.29
2018-05-10T10:00:27.158Z,39.00
2018-05-10T10:02:58.111Z,36.80
2018-05-10T10:05:28.272Z,36.76
2018-05-10T10:08:47.812Z,38.28
2018-05-10T10:11:17.522Z,36.77
2018-05-10T10:14:01.161Z,34.79
2018-05-10T10:16:32.136Z,35.60
2018-05-10T10:19:50.531Z,39.37
2018-05-10T10:29:18.741Z,34.36
2018-05-10T10:31:50.545Z,36.57
2018-05-10T10:34:32.008Z,35.94
2018-05-10T10:37:02.442Z,38.51
2018-05-10T10:52:04.519Z,37.47
2018-05-10T10:54:34.326Z,38.78
2018-05-10T10:57:04.012Z,38.51
2018-05-10T10:59:33.755Z,39.45
2018-05-10T11:02:03.262Z,39.41
2018-05-10T11:04:34.261Z,39.88
2018-05-10T11:07:04.495Z,40.21
2018-05-10T11:09:36.703Z,41.05
2018-05-10T11:12:07.525Z,40.95
2018-05-10T11:14:37.021Z,40.79
2018-05-10T11:17:20.529Z,41.56
2018-05-10T11:19:50.993Z,42.90
2018-05-10T11:22:20.549Z,43.92
2018-05-10T11:24:55.778Z,45.01
2018-05-10T11:27:28.711Z,44.72
2018-05-10T11:29:59.393Z,45.25
2018-05-10T11:32:29.053Z,42.21
2018-05-10T11:34:58.743Z,40.77
2018-05-10T11:37:28.347Z,40.73
2018-05-10T11:39:59.155Z,41.73
2018-05-10T11:42:28.853Z,44.50
2018-05-10T11:44:58.470Z,46.86
2018-05-10T11:47:27.929Z,49.18
2018-05-10T11:49:57.509Z,52.87
2018-05-10T11:52:27.764Z,56.82
2018-05-10T11:54:57.478Z,61.13
2018-05-10T11:57:27.122Z,64.31
2018-05-10T11:59:58.052Z,66.23
2018-05-10T12:02:27.683Z,66.35
2018-05-10T12:04:58.080Z,66.89
2018-05-10T12:07:27.786Z,65.62
2018-05-10T12:09:57.485Z,68.46
2018-05-10T12:12:27.239Z,69.83
2018-05-10T12:15:31.696Z,71.05
2018-05-10T12:18:01.532Z,71.16
2018-05-10T12:20:31.277Z,74.42
2018-05-10T12:23:03.147Z,76.10
2018-05-10T12:25:33.486Z,76.79
2018-05-10T12:28:03.722Z,77.21
2018-05-10T12:30:33.495Z,74.26
2018-05-10T12:33:03.381Z,71.43
2018-05-10T12:35:33.872Z,71.61
2018-05-10T12:38:03.516Z,70.78
2018-05-10T12:40:33.086Z,69.70
2018-05-10T12:43:04.176Z,69.38
2018-05-10T12:45:33.877Z,77.01
2018-05-10T12:48:04.268Z,79.76
2018-05-10T12:50:33.885Z,80.15
2018-05-10T12:53:03.671Z,79.66
2018-05-10T12:55:34.100Z,78.18
2018-05-10T12:58:04.457Z,78.80
2018-05-10T13:00:33.970Z,80.87
2018-05-10T13:03:04.637Z,80.42
2018-05-10T13:05:42.413Z,79.61
2018-05-10T13:08:13.043Z,79.89
2018-05-10T13:10:43.011Z,80.28
2018-05-10T13:13:13.271Z,80.71
2018-05-10T13:15:43.001Z,80.32
2018-05-10T13:18:12.896Z,79.65
2018-05-10T13:20:44.179Z,81.70
2018-05-10T13:23:13.854Z,82.21
2018-05-10T13:25:43.903Z,83.71
2018-05-10T13:28:14.319Z,84.59
2018-05-10T13:30:44.798Z,85.63
2018-05-10T13:33:15.303Z,85.86
2018-05-10T13:35:44.854Z,86.63
2018-05-10T13:38:14.502Z,87.82
2018-05-10T13:40:44.114Z,87.76
2018-05-10T13:43:13.632Z,89.40
2018-05-10T13:45:43.133Z,88.49
2018-05-10T13:48:13.951Z,89.79
2018-05-10T13:50:43.575Z,88.63
2018-05-10T13:53:13.073Z,88.62
2018-05-10T13:55:42.814Z,88.86
2018-05-10T13:58:13.270Z,90.29
2018-05-10T14:00:43.604Z,91.08
2018-05-10T14:03:13.213Z,91.54
2018-05-10T14:05:43.376Z,91.84
2018-05-10T14:08:13.040Z,91.11
2018-05-10T14:10:42.807Z,92.96
2018-05-10T14:13:12.385Z,91.32
2018-05-10T14:15:41.941Z,90.36
2018-05-10T14:18:12.329Z,91.18
2018-05-10T14:20:43.160Z,91.14
2018-05-10T14:23:12.698Z,90.97
2018-05-10T14:25:42.685Z,90.66
2018-05-10T14:28:22.333Z,90.16
2018-05-10T14:30:52.659Z,88.56
2018-05-10T14:33:22.284Z,87.83
2018-05-10T14:35:52.450Z,86.47
2018-05-10T14:38:25.979Z,86.26
2018-05-10T14:40:56.738Z,86.91
2018-05-10T14:43:26.273Z,86.54
2018-05-10T14:45:57.773Z,87.82
2018-05-10T14:48:27.801Z,88.70
2018-05-10T14:50:57.338Z,87.86
2018-05-10T14:53:27.125Z,88.03
2018-05-10T14:55:58.259Z,90.85
2018-05-10T14:58:28.013Z,90.86
2018-05-10T15:00:58.700Z,91.52
2018-05-10T15:03:28.418Z,92.07
2018-05-10T15:05:57.943Z,92.73
2018-05-10T15:08:27.492Z,93.94
2018-05-10T15:10:57.247Z,91.97
2018-05-10T15:13:28.359Z,93.00
2018-05-10T15:15:57.952Z,92.93
2018-05-10T15:18:27.456Z,93.46
2018-05-10T15:20:57.804Z,93.81
2018-05-10T15:23:27.588Z,92.48
2018-05-10T15:25:58.170Z,89.63
2018-05-10T15:28:27.753Z,90.13
2018-05-10T15:30:57.615Z,87.87
2018-05-10T15:33:28.661Z,86.84
2018-05-10T15:36:00.515Z,86.96
2018-05-10T15:38:31.041Z,83.98
2018-05-10T15:41:00.794Z,84.79
2018-05-10T15:43:31.163Z,83.52
2018-05-10T15:46:00.875Z,81.44
2018-05-10T15:48:31.089Z,81.13
2018-05-10T15:51:00.641Z,81.90
2018-05-10T15:53:31.134Z,80.71
2018-05-10T15:56:03.514Z,81.80
2018-05-10T15:58:33.395Z,81.33
2018-05-10T16:01:03.209Z,80.22
2018-05-10T16:03:32.834Z,81.38
2018-05-10T16:06:02.731Z,81.29
2018-05-10T16:08:32.668Z,81.25
2018-05-10T16:11:02.468Z,81.26
2018-05-10T16:13:32.092Z,81.75
2018-05-10T16:16:02.046Z,81.32
2018-05-10T16:18:34.189Z,81.85
2018-05-10T16:21:04.036Z,81.72
2018-05-10T16:23:35.466Z,81.05
2018-05-10T16:26:05.044Z,82.43
2018-05-10T16:28:34.779Z,81.77
2018-05-10T16:31:04.559Z,81.61
2018-05-10T16:33:34.659Z,81.09
2018-05-10T16:36:04.963Z,82.04
2018-05-10T16:38:35.318Z,81.66
2018-05-10T16:41:04.968Z,81.86
2018-05-10T16:43:35.081Z,80.10
2018-05-10T16:46:04.890Z,80.75
2018-05-10T16:48:36.696Z,81.13
2018-05-10T16:51:07.177Z,80.50
2018-05-10T16:53:36.897Z,81.10
2018-05-10T16:56:06.633Z,81.85
2018-05-10T16:58:37.514Z,82.86
2018-05-10T17:01:36.097Z,82.85
2018-05-10T17:08:20.821Z,83.37
2018-05-10T17:10:54.170Z,83.79
2018-05-10T17:13:23.962Z,84.14
2018-05-10T17:15:53.736Z,84.25
2018-05-10T17:18:23.420Z,83.65
2018-05-10T17:20:52.944Z,84.47
2018-05-10T17:23:23.416Z,84.59
2018-05-10T17:25:53.210Z,84.30
2018-05-10T17:28:23.454Z,85.54
2018-05-10T17:30:53.943Z,86.59
2018-05-10T17:33:23.685Z,86.46
2018-05-10T17:35:54.831Z,86.12
2018-05-10T17:38:24.389Z,85.87
2018-05-10T17:40:54.091Z,85.77
2018-05-10T17:43:23.834Z,85.47
2018-05-10T17:45:53.331Z,85.34
2018-05-10T17:48:23.013Z,84.94
2018-05-10T17:50:52.972Z,84.90
2018-05-10T17:53:22.663Z,84.96
2018-05-10T17:55:52.684Z,84.96
2018-05-10T17:58:22.455Z,85.02
2018-05-10T18:00:53.642Z,84.81
2018-05-10T18:03:23.165Z,83.59
2018-05-10T18:05:53.497Z,83.78
2018-05-10T18:08:33.532Z,83.81
2018-05-10T18:11:03.239Z,84.09
2018-05-10T18:13:32.896Z,84.53
2018-05-10T18:16:03.270Z,85.26
2018-05-10T18:18:33.005Z,85.03
2018-05-10T18:21:02.873Z,84.63
2018-05-10T18:23:32.708Z,84.40
2018-05-10T18:26:10.223Z,85.00
2018-05-10T18:28:39.920Z,85.58
2018-05-10T18:31:09.647Z,85.87
2018-05-10T18:33:39.355Z,88.03
2018-05-10T18:36:09.172Z,89.65
2018-05-10T18:38:38.921Z,91.15
2018-05-10T18:41:09.874Z,92.59
2018-05-10T18:43:40.243Z,94.01
2018-05-10T18:46:11.190Z,94.59
2018-05-10T18:48:42.026Z,94.69
2018-05-10T18:51:11.747Z,95.44
2018-05-10T18:53:42.389Z,95.19
2018-05-10T18:56:12.124Z,96.10
2018-05-10T18:58:42.808Z,95.60
2018-05-10T19:01:13.217Z,95.95
2018-05-10T19:03:43.372Z,97.34
2018-05-10T19:06:13.893Z,97.22
2018-05-10T19:08:44.543Z,98.04
2018-05-10T19:11:14.188Z,97.57
2018-05-10T19:13:44.983Z,97.52
2018-05-10T19:16:14.808Z,97.63
2018-05-10T19:18:44.585Z,97.92
2018-05-10T19:21:14.197Z,98.79
2018-05-10T19:23:43.896Z,98.93
2018-05-10T19:26:13.503Z,98.71
2018-05-10T19:28:43.147Z,98.69
2018-05-10T19:31:12.666Z,98.89
2018-05-10T19:33:44.663Z,98.78
2018-05-10T19:36:15.199Z,98.94
2018-05-10T19:38:44.944Z,99.17
2018-05-10T19:41:16.204Z,99.23
2018-05-10T19:43:45.957Z,99.21
2018-05-10T19:46:16.646Z,99.83
2018-05-10T19:48:46.427Z,100.00
2018-05-10T19:51:16.224Z,100.00
2018-05-10T19:53:46.056Z,99.70
2018-05-10T19:56:15.876Z,99.23
2018-05-10T19:58:45.791Z,98.94
2018-05-10T20:01:15.511Z,99.44
2018-05-10T20:03:45.561Z,99.44
2018-05-10T20:06:19.470Z,99.65
2018-05-10T20:08:51.197Z,99.01
2018-05-10T20:11:21.410Z,100.00
2018-05-10T20:13:51.510Z,99.60
2018-05-10T20:16:21.333Z,99.63
2018-05-10T20:18:51.206Z,99.60
2018-05-10T20:21:21.818Z,99.20
2018-05-10T20:23:54.412Z,99.73
2018-05-10T20:26:26.522Z,99.58
2018-05-10T20:28:57.778Z,100.00
2018-05-10T20:31:28.781Z,100.00
2018-05-10T20:33:59.360Z,100.00
2018-05-10T20:36:29.326Z,100.00
2018-05-10T20:38:59.069Z,100.00
2018-05-10T20:41:28.935Z,100.00
2018-05-10T20:43:58.481Z,100.00
2018-05-10T20:46:29.029Z,100.00
2018-05-10T20:48:58.744Z,100.00
2018-05-10T20:51:28.726Z,100.00
2018-05-10T20:54:01.016Z,100.00
2018-05-10T20:56:31.862Z,100.00
2018-05-10T20:59:02.550Z,100.00
2018-05-10T21:01:32.553Z,100.00
2018-05-10T21:04:02.337Z,100.00
2018-05-10T21:06:32.822Z,100.00
2018-05-10T21:09:08.427Z,100.00
2018-05-10T21:11:38.333Z,100.00
2018-05-10T21:14:08.111Z,100.00
2018-05-10T21:16:38.250Z,100.00
2018-05-10T21:19:08.079Z,99.87
2018-05-10T21:21:44.582Z,99.52
2018-05-10T21:24:15.411Z,99.21
2018-05-10T21:26:45.067Z,99.77
2018-05-10T21:29:15.485Z,100.00
2018-05-10T21:31:45.285Z,100.00
2018-05-10T21:34:15.741Z,100.00
2018-05-10T21:36:47.069Z,100.00
2018-05-10T21:39:16.779Z,100.00
2018-05-10T21:41:48.481Z,100.00
2018-05-10T21:44:19.997Z,100.00
2018-05-10T21:46:51.158Z,100.00
2018-05-10T21:49:38.997Z,100.00
2018-05-10T21:52:08.724Z,100.00
2018-05-10T21:54:38.486Z,100.00
2018-05-10T21:57:09.350Z,100.00
2018-05-10T21:59:39.187Z,100.00
2018-05-10T22:02:09.918Z,100.00
2018-05-10T22:04:39.682Z,100.00
2018-05-10T22:07:09.414Z,100.00
2018-05-10T22:09:38.969Z,100.00
2018-05-10T22:12:18.508Z,100.00
2018-05-10T22:14:48.081Z,100.00
2018-05-10T22:17:19.964Z,100.00
2018-05-10T22:19:51.223Z,100.00
2018-05-10T22:22:35.024Z,100.00
2018-05-10T22:25:04.791Z,100.00
2018-05-10T22:27:34.676Z,100.00
2018-05-10T22:30:04.542Z,100.00
2018-05-10T22:32:34.834Z,100.00
2018-05-10T22:35:04.494Z,100.00
2018-05-10T22:37:34.338Z,100.00
2018-05-10T22:40:04.323Z,100.00
2018-05-10T22:42:34.032Z,100.00
2018-05-10T22:45:03.675Z,100.00
2018-05-10T22:47:34.810Z,100.00
2018-05-10T22:50:04.596Z,100.00
2018-05-10T22:52:34.450Z,100.00
2018-05-10T22:55:04.266Z,100.00
2018-05-10T22:57:34.046Z,100.00
2018-05-10T23:00:03.576Z,100.00
2018-05-10T23:02:34.445Z,100.00
2018-05-10T23:05:05.024Z,100.00
2018-05-10T23:07:34.869Z,100.00
2018-05-10T23:10:05.506Z,100.00
2018-05-10T23:12:35.212Z,100.00
2018-05-10T23:15:04.954Z,100.00
2018-05-10T23:17:35.485Z,100.00
2018-05-10T23:20:05.834Z,100.00
2018-05-10T23:22:36.612Z,100.00
2018-05-10T23:25:08.380Z,100.00
2018-05-10T23:27:38.774Z,100.00
2018-05-10T23:30:08.609Z,100.00
2018-05-10T23:32:38.232Z,100.00
2018-05-10T23:35:07.810Z,100.00
2018-05-10T23:37:38.361Z,100.00
2018-05-10T23:40:09.287Z,100.00
2018-05-10T23:42:38.827Z,100.00
2018-05-10T23:45:08.395Z,100.00
2018-05-10T23:47:38.009Z,100.00
2018-05-10T23:50:11.989Z,100.00
2018-05-10T23:52:43.754Z,100.00
2018-05-10T23:55:16.614Z,100.00
2018-05-10T23:57:47.083Z,100.00
